ディスパッチャーの航空気象情報

運航管理者が航空に関する気象情報サイトを集めました。 フライト前に天気チェックに。ディスパッチャーになりたい人に。
上記の広告は1ヶ月以上更新のないブログに表示されています。
新しい記事を書く事で広告が消せます。
北海道付近を進む猛発達した低気圧から寒冷前線がのび、午前中に北日本・東日本を通過する。
このタイミングで、雨が降り、雷を伴って雨脚の強まるおそれ。
前線の通過後、日本付近は一時的に冬型の気圧配置に。
日本海側では、雲が広がりやすく、北陸以北では雪が降りやすい。
また、風も吹き荒れ、海はしけるため、暴風や高波に注意・警戒を。
昼間の気温は、20日よりグッと下がり、全国的に寒さが戻る。

日経225ミニ先物


by 天気のツボ


RJGG 202330Z 30013KT 2700 SA FEW008 BKN012 BKN025 13/07 Q1001 TEMPO 30015G25KT=

RJCC 210000Z 21029G46KT 9999 FEW010 SCT030 07/M02 Q0978=
RJCC 202330Z 19026G40KT 4000 SA FEW010 BKN025 06/M01 Q0978=
RJCC 202313Z 19020G32KT 4500 SA FEW010 BKN025 BKN070 06/02 Q0979 RMK 1ST010 5CU025 6AC070 A2891 YELLOW SAND=


猛烈に発達した低気圧のため全国各地で強風がふきあれています。
またMETARにはあまり見ない「SA」の記述があります。
SAとは、「砂(sand)」のことで視程が5KM以下の時に表示されます。

コメント
この記事へのコメント
コメントを投稿する
URL:
Comment:
Pass:
秘密: 管理者にだけ表示を許可する
 
トラックバック
この記事のトラックバックURL
http://wxdisp.blog113.fc2.com/tb.php/25-d07909c4
この記事にトラックバックする(FC2ブログユーザー)
この記事へのトラックバック
上記広告は1ヶ月以上更新のないブログに表示されています。新しい記事を書くことで広告を消せます。